createdAt,value
2018-04-06T05:58:50.384Z,18.70
2018-04-06T05:59:50.314Z,18.44
2018-04-06T06:01:43.694Z,18.20
2018-04-06T06:02:43.690Z,17.87
2018-04-06T06:04:37.118Z,17.82
2018-04-06T06:05:37.070Z,17.79
2018-04-06T06:07:31.461Z,17.64
2018-04-06T06:08:31.455Z,17.63
2018-04-06T06:16:47.266Z,17.78
2018-04-06T06:17:47.288Z,17.92
2018-04-06T06:19:40.648Z,18.17
2018-04-06T06:20:40.635Z,18.30
2018-04-06T09:10:25.296Z,18.05
2018-04-06T09:11:25.286Z,18.11
2018-04-06T09:13:19.668Z,18.11
2018-04-06T09:14:19.662Z,18.14
2018-04-06T09:16:13.064Z,18.21
2018-04-06T09:17:13.041Z,18.14
2018-04-06T09:19:06.429Z,18.17
2018-04-06T09:20:06.425Z,18.21
2018-04-06T09:21:59.817Z,18.29
2018-04-06T09:22:59.812Z,18.29
2018-04-06T09:24:53.254Z,18.25
2018-04-06T09:25:53.204Z,18.32
2018-04-06T09:27:46.595Z,18.35
2018-04-06T09:28:46.593Z,18.42
2018-04-06T09:29:46.597Z,18.35
2018-04-06T09:30:46.611Z,18.41
2018-04-06T09:31:46.671Z,18.41
2018-04-06T09:32:46.679Z,18.41
2018-04-06T09:33:46.687Z,18.36
2018-04-06T09:34:46.711Z,18.41
2018-04-06T09:35:46.702Z,18.47
2018-04-06T09:36:46.718Z,18.44
2018-04-06T09:37:46.703Z,18.50
2018-04-06T09:38:48.400Z,18.51
2018-04-06T09:39:47.024Z,18.42
2018-04-06T09:40:46.671Z,18.47
2018-04-06T09:41:46.680Z,18.42
2018-04-06T09:42:46.698Z,18.62
2018-04-06T09:43:46.672Z,18.65
2018-04-06T09:44:46.724Z,18.63
2018-04-06T09:45:46.737Z,18.72
2018-04-06T09:46:46.729Z,18.63
2018-04-06T09:47:46.681Z,18.58
2018-04-06T09:48:46.686Z,18.63
2018-04-06T09:49:46.690Z,18.60
2018-04-06T09:50:46.696Z,18.63
2018-04-06T09:51:46.701Z,18.63
2018-04-06T09:52:46.705Z,18.62
2018-04-06T09:53:46.710Z,18.65
2018-04-06T09:54:46.714Z,18.69
2018-04-06T09:55:46.737Z,18.73
2018-04-06T09:56:46.733Z,18.72
2018-04-06T09:57:46.731Z,18.73
2018-04-06T09:58:46.737Z,18.75
2018-04-06T09:59:46.742Z,18.72
2018-04-06T10:00:46.748Z,18.65
2018-04-06T10:01:47.661Z,18.72
2018-04-06T10:02:46.760Z,18.67
2018-04-06T10:03:46.766Z,18.69
2018-04-06T10:04:46.769Z,18.70
2018-04-06T10:05:47.714Z,18.69
2018-04-06T10:06:46.849Z,18.76
2018-04-06T10:07:46.787Z,18.75
2018-04-06T10:08:46.792Z,18.66
2018-04-06T10:09:46.825Z,18.85
2018-04-06T10:10:46.824Z,18.70
2018-04-06T10:11:46.830Z,18.75
2018-04-06T10:12:46.814Z,18.66
2018-04-06T10:13:46.893Z,18.81
2018-04-06T10:14:46.825Z,18.76
2018-04-06T10:15:46.838Z,18.72
2018-04-06T10:16:46.833Z,18.80
2018-04-06T10:17:46.839Z,18.70
2018-04-06T10:18:46.845Z,18.76
2018-04-06T10:19:46.850Z,18.73
2018-04-06T10:20:46.855Z,18.72
2018-04-06T10:21:46.864Z,18.63
2018-04-06T11:19:38.861Z,18.29
2018-04-06T11:20:38.807Z,18.33
2018-04-06T11:22:32.249Z,18.35
2018-04-06T11:23:32.186Z,18.37
2018-04-06T11:25:25.565Z,18.42
2018-04-06T11:26:25.561Z,18.48
2018-04-06T11:28:18.995Z,18.42
2018-04-06T11:29:18.946Z,18.41
2018-04-06T11:31:12.739Z,18.60
2018-04-06T11:32:12.348Z,18.65
2018-04-06T11:34:05.792Z,18.60
2018-04-06T11:35:05.736Z,18.66
2018-04-06T11:36:47.500Z,18.67
2018-04-06T11:37:46.465Z,18.80
2018-04-06T11:39:39.808Z,18.78
2018-04-06T11:40:40.414Z,18.75
2018-04-06T11:41:39.832Z,18.75
2018-04-06T11:42:39.850Z,18.76
2018-04-06T11:43:39.804Z,18.78
2018-04-06T11:44:39.817Z,18.90
2018-04-06T11:45:39.814Z,18.85
2018-04-06T11:46:39.837Z,18.90
2018-04-06T11:47:39.872Z,18.91
2018-04-06T11:48:39.830Z,18.91
2018-04-06T11:49:39.847Z,18.88
2018-04-06T11:50:39.854Z,18.98
2018-04-06T11:51:39.850Z,18.92
2018-04-06T11:52:39.850Z,18.95
2018-04-06T11:53:39.855Z,19.02
2018-04-06T11:54:39.862Z,19.10
2018-04-06T11:55:39.871Z,19.04
2018-04-06T11:56:39.880Z,18.98
2018-04-06T11:57:39.878Z,19.07
2018-04-06T11:58:39.888Z,19.06
2018-04-06T11:59:39.892Z,19.06
2018-04-06T12:00:39.897Z,19.00
2018-04-06T12:01:39.902Z,19.08
2018-04-06T12:02:39.910Z,19.16
2018-04-06T12:03:40.026Z,19.08
2018-04-06T12:04:39.922Z,19.16
2018-04-06T12:05:39.958Z,19.16
2018-04-06T12:06:39.957Z,19.18
2018-04-06T12:07:39.937Z,19.16
2018-04-06T12:08:39.942Z,19.16
2018-04-06T12:09:39.962Z,19.14
2018-04-06T12:10:39.958Z,19.16
2018-04-06T12:11:39.961Z,19.19
2018-04-06T12:12:39.967Z,19.16
2018-04-06T12:13:39.975Z,19.13
2018-04-06T12:14:39.981Z,19.18
2018-04-06T12:15:39.984Z,19.18
2018-04-06T12:16:39.991Z,19.16
2018-04-06T12:17:39.996Z,19.13
2018-04-06T12:18:40.004Z,19.18
2018-04-06T12:19:40.060Z,19.21
2018-04-06T12:20:40.014Z,19.14
2018-04-06T12:21:41.910Z,19.16
2018-04-06T12:22:40.030Z,19.21
2018-04-06T12:23:40.046Z,19.16
2018-04-06T12:24:40.040Z,19.13
2018-04-06T12:25:40.047Z,19.18
2018-04-06T12:26:40.052Z,19.14
2018-04-06T12:27:40.064Z,19.37
2018-04-06T12:28:40.063Z,19.29
2018-04-06T12:29:40.088Z,19.36
2018-04-06T12:30:40.103Z,19.48
2018-04-06T12:31:40.086Z,19.61
2018-04-06T12:32:40.087Z,19.62
2018-04-06T12:33:40.106Z,19.71
2018-04-06T12:34:40.099Z,19.63
2018-04-06T12:35:40.147Z,19.66
2018-04-06T12:36:40.919Z,19.76
2018-04-06T12:37:40.122Z,19.71
2018-04-06T12:38:40.125Z,19.84
2018-04-06T12:39:40.168Z,19.83
2018-04-06T12:40:40.136Z,19.86
2018-04-06T12:41:40.199Z,19.86
2018-04-06T12:42:40.157Z,19.91
2018-04-06T12:43:40.156Z,19.86
2018-04-06T12:44:40.907Z,19.91
2018-04-06T12:45:40.169Z,19.92
2018-04-06T12:46:40.191Z,19.87
2018-04-06T12:47:40.916Z,19.98
2018-04-06T12:48:40.188Z,20.02
2018-04-06T12:49:40.242Z,20.06
2018-04-06T12:50:40.200Z,20.03
2018-04-06T12:51:40.207Z,20.08
2018-04-06T12:52:40.213Z,20.03
2018-04-06T12:53:40.220Z,20.05
2018-04-06T12:54:40.227Z,20.03
2018-04-06T12:55:40.233Z,20.02
2018-04-06T12:56:40.240Z,20.05
2018-04-06T12:57:40.251Z,20.10
2018-04-06T12:58:40.259Z,20.08
2018-04-06T12:59:40.259Z,20.03
2018-04-06T13:00:40.267Z,20.03
2018-04-06T13:01:40.274Z,20.11
2018-04-06T13:02:40.290Z,20.20
2018-04-06T13:03:40.286Z,20.14
2018-04-06T13:04:40.368Z,20.17
2018-04-06T13:05:40.878Z,20.20
2018-04-06T13:06:40.378Z,20.16
2018-04-06T13:07:40.318Z,20.18
2018-04-06T13:08:40.335Z,20.18
2018-04-06T13:09:40.327Z,20.16
2018-04-06T13:10:40.334Z,20.16
2018-04-06T13:11:40.340Z,20.11
2018-04-06T13:12:40.349Z,19.92
2018-04-06T13:13:40.874Z,19.84
2018-04-06T13:14:41.367Z,19.68
2018-04-06T13:15:40.810Z,19.68
2018-04-06T13:16:40.695Z,19.63
2018-04-06T13:17:40.555Z,19.65
2018-04-06T13:18:40.494Z,19.68
2018-04-06T13:19:40.445Z,19.59
2018-04-06T13:20:40.901Z,19.66
2018-04-06T13:21:41.005Z,19.63
2018-04-06T13:22:40.447Z,19.59
2018-04-06T13:23:40.898Z,19.62
2018-04-06T13:24:41.438Z,19.61
2018-04-06T13:25:40.908Z,19.63
2018-04-06T13:26:40.830Z,19.65
2018-04-06T13:27:40.663Z,19.61
2018-04-06T13:28:40.644Z,19.59
2018-04-06T13:29:40.594Z,19.59
2018-04-06T13:30:40.481Z,19.66
2018-04-06T13:31:40.730Z,19.62
2018-04-06T13:32:40.488Z,19.48
2018-04-06T13:33:40.490Z,19.48
2018-04-06T13:34:40.494Z,19.54
2018-04-06T13:35:40.503Z,19.50
2018-04-06T13:36:40.508Z,19.56
2018-04-06T13:37:40.515Z,19.48
2018-04-06T13:38:40.557Z,19.47
2018-04-06T13:39:40.526Z,19.58
2018-04-06T13:40:40.539Z,19.54
2018-04-06T13:41:40.541Z,19.43
2018-04-06T13:42:40.612Z,19.47
2018-04-06T13:43:40.551Z,19.43
2018-04-06T13:44:40.561Z,19.41
2018-04-06T13:45:40.567Z,19.40
2018-04-06T13:46:40.575Z,19.31
2018-04-06T13:47:40.578Z,19.33
2018-04-06T13:48:40.586Z,19.29
2018-04-06T13:49:40.591Z,19.43
2018-04-06T13:50:40.608Z,19.39
2018-04-06T13:51:40.604Z,19.39
2018-04-06T13:52:40.611Z,19.31
2018-04-06T13:53:40.615Z,19.41
2018-04-06T13:54:40.625Z,19.37
2018-04-06T13:55:40.629Z,19.33
2018-04-06T13:56:40.637Z,19.41
2018-04-06T13:57:40.643Z,19.40
2018-04-06T13:58:40.656Z,19.40
2018-04-06T13:59:40.656Z,19.39
2018-04-06T14:00:40.660Z,19.46
2018-04-06T14:01:40.667Z,19.40
2018-04-06T14:02:40.679Z,19.32
2018-04-06T14:03:40.681Z,19.33
2018-04-06T14:04:40.689Z,19.44
2018-04-06T14:05:40.697Z,19.39
2018-04-06T14:06:40.702Z,19.31
2018-04-06T14:07:40.710Z,19.43
2018-04-06T14:08:40.710Z,19.40
2018-04-06T14:09:40.718Z,19.41
2018-04-06T14:10:40.726Z,19.37
2018-04-06T14:11:40.731Z,19.43
2018-04-06T14:12:40.738Z,19.40
2018-04-06T14:13:40.746Z,19.44
2018-04-06T14:14:40.750Z,19.40
2018-04-06T14:15:40.763Z,19.29
2018-04-06T15:53:38.829Z,18.98
2018-04-06T15:54:38.778Z,18.94
2018-04-06T15:56:32.155Z,18.90
2018-04-06T15:57:32.151Z,18.91
2018-04-06T15:59:25.577Z,19.13
2018-04-06T16:00:25.531Z,19.28
2018-04-06T16:02:18.911Z,19.41
2018-04-06T16:03:18.907Z,19.39
2018-04-06T16:05:13.337Z,18.90
2018-04-06T16:06:13.303Z,18.78
2018-04-06T16:08:06.676Z,18.91
2018-04-06T16:09:06.679Z,19.06
2018-04-06T16:11:01.191Z,19.44
2018-04-06T16:12:01.062Z,19.71
2018-04-06T16:13:55.567Z,19.91
2018-04-06T16:14:55.512Z,19.94
2018-04-06T16:16:49.077Z,20.01
2018-04-06T16:17:49.041Z,20.02
2018-04-06T16:19:42.474Z,20.01
2018-04-06T16:20:43.444Z,20.03
2018-04-06T16:22:36.818Z,20.02
2018-04-06T16:23:36.867Z,20.16
2018-04-06T16:25:31.259Z,20.32
2018-04-06T16:26:31.265Z,20.31
2018-04-06T16:28:24.681Z,20.62
2018-04-06T16:29:24.682Z,20.64
2018-04-06T16:31:18.131Z,20.52
2018-04-06T16:32:18.061Z,20.52
2018-04-06T16:34:12.534Z,19.19
2018-04-06T16:35:12.981Z,18.82
2018-04-06T16:37:06.915Z,18.76
2018-04-06T16:38:06.888Z,18.60
2018-04-06T16:40:00.280Z,18.60
2018-04-06T20:08:43.946Z,17.34
2018-04-06T20:09:43.893Z,17.38
2018-04-06T20:11:37.315Z,17.51
2018-04-06T20:12:37.266Z,17.43
2018-04-06T20:14:31.693Z,17.63
2018-04-06T20:15:31.669Z,17.51
